createdAt,value
2023-03-22T00:02:08.262Z,12.70
2023-03-22T00:04:34.892Z,12.70
2023-03-22T00:07:01.474Z,12.70
2023-03-22T00:09:28.206Z,12.60
2023-03-22T00:11:54.792Z,12.60
2023-03-22T00:14:21.573Z,12.70
2023-03-22T00:16:49.089Z,12.60
2023-03-22T00:19:17.210Z,12.60
2023-03-22T00:21:44.360Z,12.60
2023-03-22T00:24:11.014Z,12.60
2023-03-22T00:26:37.878Z,12.60
2023-03-22T00:29:04.801Z,12.70
2023-03-22T00:31:31.695Z,12.70
2023-03-22T00:33:58.370Z,12.70
2023-03-22T00:36:25.064Z,12.70
2023-03-22T00:38:52.095Z,12.60
2023-03-22T00:41:21.661Z,12.70
2023-03-22T00:43:49.305Z,12.60
2023-03-22T00:46:18.257Z,12.60
2023-03-22T00:48:45.349Z,12.60
2023-03-22T00:51:12.724Z,12.60
2023-03-22T00:53:42.869Z,12.60
2023-03-22T00:56:13.667Z,12.50
2023-03-22T00:58:40.791Z,12.50
2023-03-22T01:01:07.834Z,12.50
2023-03-22T01:03:34.992Z,12.50
2023-03-22T01:06:01.729Z,12.50
2023-03-22T01:08:32.984Z,12.50
2023-03-22T01:11:00.869Z,12.40
2023-03-22T01:13:27.689Z,12.40
2023-03-22T01:15:54.343Z,12.50
2023-03-22T01:18:22.230Z,12.40
2023-03-22T01:20:48.826Z,12.30
2023-03-22T01:23:15.867Z,12.30
2023-03-22T01:25:43.250Z,12.30
2023-03-22T01:28:10.044Z,12.40
2023-03-22T01:30:39.917Z,12.30
2023-03-22T01:33:07.657Z,12.30
2023-03-22T01:35:35.394Z,12.30
2023-03-22T01:38:02.769Z,12.20
2023-03-22T01:40:29.533Z,12.30
2023-03-22T01:42:56.241Z,12.20
2023-03-22T01:45:22.800Z,12.20
2023-03-22T01:47:56.595Z,12.20
2023-03-22T01:50:25.727Z,12.10
2023-03-22T01:52:54.513Z,12.10
2023-03-22T01:55:23.213Z,12.00
2023-03-22T01:57:51.478Z,12.00
2023-03-22T02:00:19.089Z,12.00
2023-03-22T02:02:49.050Z,12.00
2023-03-22T02:05:17.072Z,12.00
2023-03-22T02:07:44.780Z,12.00
2023-03-22T02:10:17.912Z,12.00
2023-03-22T02:13:38.802Z,11.90
2023-03-22T02:16:08.603Z,11.90
2023-03-22T02:19:01.385Z,11.90
2023-03-22T02:22:06.500Z,11.90
2023-03-22T02:25:00.450Z,11.90
2023-03-22T02:27:56.662Z,11.90
2023-03-22T02:30:52.752Z,11.90
2023-03-22T02:33:25.489Z,11.80
2023-03-22T02:36:22.179Z,11.80
2023-03-22T02:39:00.377Z,11.80
2023-03-22T02:41:49.480Z,11.80
2023-03-22T02:44:25.419Z,11.80
2023-03-22T02:47:03.992Z,11.70
2023-03-22T02:49:55.255Z,11.70
2023-03-22T02:52:39.522Z,11.70
2023-03-22T02:55:28.858Z,11.70
2023-03-22T02:58:04.406Z,11.70
2023-03-22T03:00:32.265Z,11.70
2023-03-22T03:03:11.203Z,11.60
2023-03-22T03:05:44.859Z,11.60
2023-03-22T03:08:15.783Z,11.70
2023-03-22T03:10:43.515Z,11.70
2023-03-22T03:13:14.576Z,11.70
2023-03-22T03:15:43.788Z,11.70
2023-03-22T03:18:37.048Z,11.60
2023-03-22T03:21:12.006Z,11.60
2023-03-22T03:23:51.809Z,11.70
2023-03-22T03:26:36.546Z,11.50
2023-03-22T03:29:11.621Z,11.50
2023-03-22T03:31:52.379Z,11.50
2023-03-22T03:34:33.269Z,11.60
2023-03-22T03:37:17.281Z,11.40
2023-03-22T03:39:51.493Z,11.40
2023-03-22T03:42:19.075Z,11.40
2023-03-22T03:44:45.801Z,11.40
2023-03-22T03:47:13.047Z,11.40
2023-03-22T03:49:39.766Z,11.40
2023-03-22T03:52:06.713Z,11.30
2023-03-22T03:54:33.649Z,11.30
2023-03-22T03:57:02.832Z,11.30
2023-03-22T03:59:30.594Z,11.30
2023-03-22T04:01:57.311Z,11.30
2023-03-22T04:04:27.705Z,11.20
2023-03-22T04:06:56.690Z,11.20
2023-03-22T04:09:30.575Z,11.20
2023-03-22T04:11:57.739Z,11.20
2023-03-22T04:14:25.958Z,11.20
2023-03-22T04:16:52.835Z,11.20
2023-03-22T04:19:20.133Z,11.30
2023-03-22T04:21:47.503Z,11.30
2023-03-22T04:24:15.336Z,11.30
2023-03-22T04:26:42.086Z,11.30
2023-03-22T04:29:09.245Z,11.20
2023-03-22T04:31:36.752Z,11.20
2023-03-22T04:34:05.629Z,11.10
2023-03-22T04:36:36.208Z,11.10
2023-03-22T04:39:05.868Z,11.10
2023-03-22T04:41:33.311Z,11.10
2023-03-22T04:44:03.341Z,11.00
2023-03-22T04:46:31.438Z,11.10
2023-03-22T04:48:58.678Z,11.20
2023-03-22T04:51:26.195Z,11.10
2023-03-22T04:53:53.512Z,11.10
2023-03-22T04:56:20.830Z,11.10
2023-03-22T04:58:47.934Z,11.00
2023-03-22T05:01:16.418Z,11.00
2023-03-22T05:03:45.368Z,11.00
2023-03-22T05:06:12.026Z,11.00
2023-03-22T05:08:38.780Z,11.00
2023-03-22T05:11:13.325Z,11.00
2023-03-22T05:13:40.378Z,11.00
2023-03-22T05:16:08.088Z,11.00
2023-03-22T05:18:37.940Z,11.10
2023-03-22T05:21:06.659Z,11.00
2023-03-22T05:23:33.307Z,11.00
2023-03-22T05:26:01.573Z,11.00
2023-03-22T05:28:28.390Z,10.90
2023-03-22T05:30:57.114Z,10.90
2023-03-22T05:33:23.969Z,11.00
2023-03-22T05:35:51.201Z,11.00
2023-03-22T05:38:17.988Z,11.00
2023-03-22T05:40:45.120Z,11.00
2023-03-22T05:43:11.977Z,11.00
2023-03-22T05:45:38.654Z,11.00
2023-03-22T05:48:05.619Z,11.00
2023-03-22T05:50:32.880Z,11.00
2023-03-22T05:52:59.863Z,11.10
2023-03-22T05:55:26.948Z,11.10
2023-03-22T05:57:54.685Z,11.10
2023-03-22T06:00:21.765Z,11.00
2023-03-22T06:02:49.561Z,11.00
2023-03-22T06:05:17.453Z,10.90
2023-03-22T06:07:44.640Z,10.90
2023-03-22T06:10:13.511Z,10.90
2023-03-22T06:12:40.426Z,11.00
2023-03-22T06:15:08.156Z,11.10
2023-03-22T06:17:35.542Z,11.00
2023-03-22T06:20:09.233Z,11.00
2023-03-22T06:22:36.196Z,11.10
2023-03-22T06:25:02.882Z,11.10
2023-03-22T06:27:29.672Z,11.20
2023-03-22T06:29:56.290Z,11.20
2023-03-22T06:32:23.566Z,11.20
2023-03-22T06:34:54.329Z,11.20
2023-03-22T06:37:21.254Z,11.20
2023-03-22T06:39:47.990Z,11.20
2023-03-22T06:42:15.575Z,11.20
2023-03-22T06:44:43.850Z,11.20
2023-03-22T06:47:11.776Z,11.30
2023-03-22T06:49:39.040Z,11.30
2023-03-22T06:52:06.035Z,11.40
2023-03-22T06:54:32.716Z,11.30
2023-03-22T06:56:59.326Z,11.40
2023-03-22T06:59:26.047Z,11.40
2023-03-22T07:01:52.645Z,11.40
2023-03-22T07:04:19.956Z,11.50
2023-03-22T07:06:46.782Z,11.50
2023-03-22T07:09:13.403Z,11.50
2023-03-22T07:11:40.101Z,11.60
2023-03-22T07:14:06.807Z,11.60
2023-03-22T07:16:33.446Z,11.60
2023-03-22T07:19:00.685Z,11.70
2023-03-22T07:21:27.369Z,11.70
2023-03-22T07:23:55.062Z,11.70
2023-03-22T07:26:21.760Z,11.70
2023-03-22T07:28:48.350Z,11.60
2023-03-22T07:31:15.685Z,11.60
2023-03-22T07:33:42.406Z,11.60
2023-03-22T07:36:10.363Z,11.60
2023-03-22T07:38:37.430Z,11.60
2023-03-22T07:41:04.571Z,11.60
2023-03-22T07:43:31.230Z,11.60
2023-03-22T07:45:57.947Z,11.60
2023-03-22T07:48:24.828Z,11.60
2023-03-22T07:50:56.039Z,11.60
2023-03-22T07:53:22.679Z,11.60
2023-03-22T07:55:49.330Z,11.70
2023-03-22T07:58:16.171Z,11.70
2023-03-22T08:00:42.801Z,11.70
2023-03-22T08:03:12.218Z,11.70
2023-03-22T08:05:43.411Z,11.80
2023-03-22T08:08:10.929Z,11.70
2023-03-22T08:10:37.873Z,11.80
2023-03-22T08:13:04.810Z,11.60
2023-03-22T08:15:31.453Z,11.70
2023-03-22T08:17:58.324Z,11.70
2023-03-22T08:20:28.068Z,11.70
2023-03-22T08:22:55.319Z,11.70
2023-03-22T08:25:23.566Z,11.80
2023-03-22T08:27:50.217Z,11.90
2023-03-22T08:30:16.934Z,11.80
2023-03-22T08:32:43.698Z,11.80
2023-03-22T08:35:11.077Z,11.90
2023-03-22T08:37:37.762Z,11.90
2023-03-22T08:40:07.450Z,12.00
2023-03-22T08:42:34.084Z,12.00
2023-03-22T08:45:00.704Z,12.00
2023-03-22T08:47:27.331Z,12.00
2023-03-22T08:49:53.896Z,12.10
2023-03-22T08:52:20.729Z,12.10
2023-03-22T08:54:47.376Z,12.10
2023-03-22T08:57:14.793Z,12.20
2023-03-22T08:59:41.379Z,12.20
2023-03-22T09:02:09.007Z,12.30
2023-03-22T09:04:36.027Z,12.30
2023-03-22T09:07:02.835Z,12.40
2023-03-22T09:09:29.628Z,12.30
2023-03-22T09:11:56.296Z,12.20
2023-03-22T09:14:22.873Z,12.20
2023-03-22T09:16:49.547Z,12.20
2023-03-22T09:19:16.476Z,12.20
2023-03-22T09:21:43.382Z,12.30
2023-03-22T09:24:10.269Z,12.30
2023-03-22T09:26:37.020Z,12.30
2023-03-22T09:29:03.655Z,12.20
2023-03-22T09:31:30.240Z,12.20
2023-03-22T09:33:56.870Z,12.30
2023-03-22T09:36:23.431Z,12.40
2023-03-22T09:38:50.071Z,12.50
2023-03-22T09:41:25.288Z,12.60
2023-03-22T09:43:56.946Z,12.50
2023-03-22T09:46:36.867Z,12.50
2023-03-22T09:49:10.346Z,12.50
2023-03-22T09:51:46.589Z,12.60
2023-03-22T09:54:27.345Z,12.70
2023-03-22T09:57:02.932Z,12.80
2023-03-22T09:59:52.489Z,12.70
2023-03-22T10:02:51.112Z,12.60
2023-03-22T10:05:27.474Z,12.70
2023-03-22T10:08:06.072Z,12.70
2023-03-22T10:10:32.808Z,12.80
2023-03-22T10:13:10.143Z,12.60
2023-03-22T10:15:44.726Z,12.50
2023-03-22T10:18:17.995Z,12.50
2023-03-22T10:20:56.820Z,12.50
2023-03-22T10:23:48.666Z,12.60
2023-03-22T10:26:41.203Z,12.50
2023-03-22T10:29:24.450Z,12.60
2023-03-22T10:31:51.174Z,12.60
2023-03-22T10:34:17.751Z,12.60
2023-03-22T10:36:45.718Z,12.60
2023-03-22T10:39:25.877Z,12.60
2023-03-22T10:41:58.070Z,12.70
2023-03-22T10:44:26.667Z,12.80
2023-03-22T10:46:56.295Z,12.80
2023-03-22T10:49:32.888Z,12.90
2023-03-22T10:52:04.432Z,12.90
2023-03-22T10:54:31.783Z,12.90
2023-03-22T10:56:58.395Z,12.90
2023-03-22T10:59:49.496Z,12.90
2023-03-22T11:02:23.710Z,12.90
2023-03-22T11:04:56.331Z,12.90
2023-03-22T11:07:29.290Z,12.90
2023-03-22T11:10:08.122Z,12.90
2023-03-22T11:12:40.615Z,12.90
2023-03-22T11:15:24.559Z,12.90
2023-03-22T11:17:51.675Z,13.00
2023-03-22T11:20:19.402Z,12.90
2023-03-22T11:22:48.023Z,13.00
2023-03-22T11:25:17.782Z,13.00
2023-03-22T11:27:57.061Z,12.90
2023-03-22T11:30:29.138Z,13.00
2023-03-22T11:33:07.754Z,13.10
2023-03-22T11:35:38.270Z,13.10
2023-03-22T11:38:05.517Z,13.00
2023-03-22T11:40:35.464Z,13.10
2023-03-22T11:43:16.560Z,13.00
2023-03-22T11:45:44.683Z,13.10
2023-03-22T11:48:31.597Z,13.10
2023-03-22T11:51:40.685Z,13.20
2023-03-22T11:54:28.819Z,13.20
2023-03-22T11:57:02.729Z,13.10
2023-03-22T11:59:36.317Z,13.00
2023-03-22T12:02:17.911Z,13.10
2023-03-22T12:04:47.795Z,13.10
2023-03-22T12:07:19.331Z,13.20
2023-03-22T12:10:06.043Z,13.20
2023-03-22T12:12:40.769Z,13.10
2023-03-22T12:15:23.125Z,13.20
2023-03-22T12:18:08.002Z,13.20
2023-03-22T12:20:41.785Z,13.10
2023-03-22T12:23:23.903Z,13.20
2023-03-22T12:26:12.408Z,13.20
2023-03-22T12:28:58.882Z,13.10
2023-03-22T12:31:39.802Z,13.20
2023-03-22T12:34:17.035Z,13.20
2023-03-22T12:37:05.275Z,13.20
2023-03-22T12:39:37.703Z,13.30
2023-03-22T12:42:12.928Z,13.20
2023-03-22T12:44:44.880Z,13.20
2023-03-22T12:47:41.737Z,13.20
2023-03-22T12:50:25.451Z,13.30
2023-03-22T12:52:57.226Z,13.30
2023-03-22T12:55:31.561Z,13.30
2023-03-22T12:57:59.188Z,13.30
2023-03-22T13:00:33.588Z,13.30
2023-03-22T13:03:20.036Z,13.30
2023-03-22T13:05:59.346Z,13.30
2023-03-22T13:08:26.222Z,13.40
2023-03-22T13:11:04.814Z,13.30
2023-03-22T13:13:40.916Z,13.30
2023-03-22T13:16:13.346Z,13.30
2023-03-22T13:18:59.181Z,13.40
2023-03-22T13:21:29.646Z,13.40
2023-03-22T13:24:05.192Z,13.40
2023-03-22T13:27:01.186Z,13.40
2023-03-22T13:29:39.088Z,13.40
2023-03-22T13:32:30.702Z,13.50
2023-03-22T13:34:57.430Z,13.60
2023-03-22T13:37:37.769Z,13.60
2023-03-22T13:40:27.368Z,13.60
2023-03-22T13:42:54.034Z,13.70
2023-03-22T13:45:33.270Z,13.70
2023-03-22T13:48:09.920Z,13.60
2023-03-22T13:50:37.293Z,13.60
2023-03-22T13:53:07.688Z,13.60
2023-03-22T13:55:54.498Z,13.60
2023-03-22T13:58:32.866Z,13.60
2023-03-22T14:01:00.284Z,13.60
2023-03-22T14:03:31.530Z,13.60
2023-03-22T14:06:13.718Z,13.60
2023-03-22T14:08:44.068Z,13.70
2023-03-22T14:11:22.521Z,13.70
2023-03-22T14:13:56.085Z,13.80
2023-03-22T14:16:36.605Z,13.70
2023-03-22T14:19:06.266Z,13.70
2023-03-22T14:21:39.148Z,13.70
